sensor_id;sensor_type;location;lat;lon;timestamp;P1;durP1;ratioP1;P2;durP2;ratioP2
28802;SDS011;15949;55.656;37.422;2023-12-04T00:03:00;14.73;;;8.00;;
28802;SDS011;15949;55.656;37.422;2023-12-04T00:08:06;16.95;;;7.90;;
28802;SDS011;15949;55.656;37.422;2023-12-04T00:13:12;14.40;;;7.78;;
28802;SDS011;15949;55.656;37.422;2023-12-04T00:18:18;16.23;;;7.80;;
28802;SDS011;15949;55.656;37.422;2023-12-04T00:23:23;13.85;;;7.63;;
28802;SDS011;15949;55.656;37.422;2023-12-04T00:28:29;15.82;;;7.60;;
28802;SDS011;15949;55.656;37.422;2023-12-04T00:33:34;13.77;;;7.30;;
28802;SDS011;15949;55.656;37.422;2023-12-04T00:38:40;10.57;;;5.55;;
28802;SDS011;15949;55.656;37.422;2023-12-04T00:43:46;13.10;;;7.55;;
28802;SDS011;15949;55.656;37.422;2023-12-04T00:48:51;14.18;;;7.43;;
28802;SDS011;15949;55.656;37.422;2023-12-04T00:53:57;13.43;;;7.28;;
28802;SDS011;15949;55.656;37.422;2023-12-04T00:59:02;13.85;;;7.82;;
28802;SDS011;15949;55.656;37.422;2023-12-04T01:04:09;15.82;;;8.23;;
28802;SDS011;15949;55.656;37.422;2023-12-04T01:09:14;14.02;;;7.35;;
28802;SDS011;15949;55.656;37.422;2023-12-04T01:14:20;12.73;;;7.25;;
28802;SDS011;15949;55.656;37.422;2023-12-04T01:19:26;15.95;;;7.75;;
28802;SDS011;15949;55.656;37.422;2023-12-04T01:24:32;18.00;;;7.20;;
28802;SDS011;15949;55.656;37.422;2023-12-04T01:29:37;12.63;;;7.30;;
28802;SDS011;15949;55.656;37.422;2023-12-04T01:34:43;13.80;;;7.30;;
28802;SDS011;15949;55.656;37.422;2023-12-04T01:39:49;13.55;;;7.70;;
28802;SDS011;15949;55.656;37.422;2023-12-04T01:44:54;15.18;;;7.93;;
28802;SDS011;15949;55.656;37.422;2023-12-04T01:50:00;12.23;;;7.10;;
28802;SDS011;15949;55.656;37.422;2023-12-04T01:55:07;14.98;;;7.80;;
28802;SDS011;15949;55.656;37.422;2023-12-04T02:00:14;12.95;;;7.80;;
28802;SDS011;15949;55.656;37.422;2023-12-04T02:05:20;15.55;;;7.80;;
28802;SDS011;15949;55.656;37.422;2023-12-04T02:10:27;16.63;;;8.32;;
28802;SDS011;15949;55.656;37.422;2023-12-04T02:15:33;16.05;;;8.63;;
28802;SDS011;15949;55.656;37.422;2023-12-04T02:20:38;14.98;;;8.55;;
28802;SDS011;15949;55.656;37.422;2023-12-04T02:25:44;16.98;;;9.45;;
28802;SDS011;15949;55.656;37.422;2023-12-04T02:30:50;17.85;;;8.90;;
28802;SDS011;15949;55.656;37.422;2023-12-04T02:35:55;17.35;;;9.10;;
28802;SDS011;15949;55.656;37.422;2023-12-04T02:41:03;21.85;;;10.15;;
28802;SDS011;15949;55.656;37.422;2023-12-04T02:46:09;16.60;;;8.98;;
28802;SDS011;15949;55.656;37.422;2023-12-04T02:51:15;17.77;;;9.32;;
28802;SDS011;15949;55.656;37.422;2023-12-04T02:56:20;19.13;;;9.10;;
28802;SDS011;15949;55.656;37.422;2023-12-04T03:01:26;18.77;;;9.25;;
28802;SDS011;15949;55.656;37.422;2023-12-04T03:06:32;18.50;;;9.70;;
28802;SDS011;15949;55.656;37.422;2023-12-04T03:11:41;18.55;;;9.88;;
28802;SDS011;15949;55.656;37.422;2023-12-04T03:21:52;20.42;;;9.52;;
28802;SDS011;15949;55.656;37.422;2023-12-04T03:26:58;19.70;;;9.50;;
28802;SDS011;15949;55.656;37.422;2023-12-04T03:32:04;23.35;;;10.45;;
28802;SDS011;15949;55.656;37.422;2023-12-04T03:37:09;17.45;;;9.30;;
28802;SDS011;15949;55.656;37.422;2023-12-04T03:42:15;18.23;;;10.30;;
28802;SDS011;15949;55.656;37.422;2023-12-04T03:47:21;19.98;;;10.90;;
28802;SDS011;15949;55.656;37.422;2023-12-04T03:52:28;16.92;;;8.40;;
28802;SDS011;15949;55.656;37.422;2023-12-04T03:57:34;19.55;;;10.68;;
28802;SDS011;15949;55.656;37.422;2023-12-04T04:02:39;22.13;;;11.10;;
28802;SDS011;15949;55.656;37.422;2023-12-04T04:07:48;21.30;;;11.50;;
28802;SDS011;15949;55.656;37.422;2023-12-04T04:12:53;20.92;;;10.50;;
28802;SDS011;15949;55.656;37.422;2023-12-04T04:17:59;21.90;;;11.23;;
28802;SDS011;15949;55.656;37.422;2023-12-04T04:23:04;21.33;;;9.20;;
28802;SDS011;15949;55.656;37.422;2023-12-04T04:28:10;22.02;;;10.95;;
28802;SDS011;15949;55.656;37.422;2023-12-04T04:33:16;21.77;;;11.15;;
28802;SDS011;15949;55.656;37.422;2023-12-04T04:38:22;24.25;;;12.27;;
28802;SDS011;15949;55.656;37.422;2023-12-04T04:43:33;25.63;;;11.82;;
28802;SDS011;15949;55.656;37.422;2023-12-04T04:48:39;23.05;;;11.93;;
28802;SDS011;15949;55.656;37.422;2023-12-04T04:53:45;20.83;;;10.77;;
28802;SDS011;15949;55.656;37.422;2023-12-04T04:58:51;21.33;;;9.27;;
28802;SDS011;15949;55.656;37.422;2023-12-04T05:03:57;27.02;;;12.85;;
28802;SDS011;15949;55.656;37.422;2023-12-04T05:09:03;26.58;;;12.98;;
28802;SDS011;15949;55.656;37.422;2023-12-04T05:14:09;22.58;;;11.82;;
28802;SDS011;15949;55.656;37.422;2023-12-04T05:19:15;25.05;;;11.77;;
28802;SDS011;15949;55.656;37.422;2023-12-04T05:24:20;30.75;;;13.05;;
28802;SDS011;15949;55.656;37.422;2023-12-04T05:29:26;23.10;;;12.57;;
28802;SDS011;15949;55.656;37.422;2023-12-04T05:34:32;27.00;;;13.35;;
28802;SDS011;15949;55.656;37.422;2023-12-04T05:39:37;27.05;;;13.55;;
28802;SDS011;15949;55.656;37.422;2023-12-04T05:44:43;19.08;;;8.73;;
28802;SDS011;15949;55.656;37.422;2023-12-04T05:49:49;27.80;;;13.98;;
28802;SDS011;15949;55.656;37.422;2023-12-04T05:54:54;22.42;;;10.57;;
28802;SDS011;15949;55.656;37.422;2023-12-04T06:00:00;26.83;;;13.23;;
28802;SDS011;15949;55.656;37.422;2023-12-04T06:05:06;26.42;;;13.00;;
28802;SDS011;15949;55.656;37.422;2023-12-04T06:10:13;26.50;;;13.18;;
28802;SDS011;15949;55.656;37.422;2023-12-04T06:15:18;24.98;;;13.88;;
28802;SDS011;15949;55.656;37.422;2023-12-04T06:20:24;21.95;;;11.88;;
28802;SDS011;15949;55.656;37.422;2023-12-04T06:25:30;30.75;;;14.13;;
28802;SDS011;15949;55.656;37.422;2023-12-04T06:30:35;28.60;;;14.15;;
28802;SDS011;15949;55.656;37.422;2023-12-04T06:35:41;26.65;;;13.77;;
28802;SDS011;15949;55.656;37.422;2023-12-04T06:40:47;26.67;;;13.43;;
28802;SDS011;15949;55.656;37.422;2023-12-04T06:45:53;28.42;;;13.98;;
28802;SDS011;15949;55.656;37.422;2023-12-04T06:51:02;33.15;;;14.82;;
28802;SDS011;15949;55.656;37.422;2023-12-04T06:56:08;35.92;;;17.27;;
28802;SDS011;15949;55.656;37.422;2023-12-04T07:01:14;34.85;;;16.00;;
28802;SDS011;15949;55.656;37.422;2023-12-04T07:06:20;32.90;;;15.90;;
28802;SDS011;15949;55.656;37.422;2023-12-04T07:11:25;30.35;;;16.05;;
28802;SDS011;15949;55.656;37.422;2023-12-04T07:16:31;30.67;;;14.75;;
28802;SDS011;15949;55.656;37.422;2023-12-04T07:21:43;36.13;;;17.30;;
28802;SDS011;15949;55.656;37.422;2023-12-04T07:26:49;33.65;;;15.75;;
28802;SDS011;15949;55.656;37.422;2023-12-04T07:31:55;30.65;;;14.63;;
28802;SDS011;15949;55.656;37.422;2023-12-04T07:37:00;31.17;;;14.63;;
28802;SDS011;15949;55.656;37.422;2023-12-04T07:42:06;36.03;;;16.10;;
28802;SDS011;15949;55.656;37.422;2023-12-04T07:47:12;36.03;;;16.70;;
28802;SDS011;15949;55.656;37.422;2023-12-04T07:52:18;30.90;;;13.60;;
28802;SDS011;15949;55.656;37.422;2023-12-04T07:57:24;29.45;;;14.38;;
28802;SDS011;15949;55.656;37.422;2023-12-04T08:02:29;27.65;;;13.68;;
28802;SDS011;15949;55.656;37.422;2023-12-04T08:07:36;25.85;;;12.70;;
28802;SDS011;15949;55.656;37.422;2023-12-04T08:12:44;26.00;;;12.93;;
28802;SDS011;15949;55.656;37.422;2023-12-04T08:17:50;18.83;;;9.43;;
28802;SDS011;15949;55.656;37.422;2023-12-04T08:22:56;23.30;;;11.00;;
28802;SDS011;15949;55.656;37.422;2023-12-04T08:28:02;24.58;;;12.07;;
28802;SDS011;15949;55.656;37.422;2023-12-04T08:33:08;21.27;;;10.15;;
28802;SDS011;15949;55.656;37.422;2023-12-04T08:38:14;18.05;;;9.23;;
28802;SDS011;15949;55.656;37.422;2023-12-04T08:43:19;23.15;;;11.68;;
28802;SDS011;15949;55.656;37.422;2023-12-04T08:48:25;19.00;;;9.38;;
28802;SDS011;15949;55.656;37.422;2023-12-04T08:53:31;26.55;;;12.52;;
28802;SDS011;15949;55.656;37.422;2023-12-04T08:58:37;25.20;;;12.40;;
28802;SDS011;15949;55.656;37.422;2023-12-04T09:03:42;25.15;;;13.55;;
28802;SDS011;15949;55.656;37.422;2023-12-04T09:08:48;22.23;;;11.52;;
28802;SDS011;15949;55.656;37.422;2023-12-04T09:13:54;21.95;;;11.70;;
28802;SDS011;15949;55.656;37.422;2023-12-04T09:19:00;26.05;;;13.60;;
28802;SDS011;15949;55.656;37.422;2023-12-04T09:24:05;23.90;;;10.70;;
28802;SDS011;15949;55.656;37.422;2023-12-04T09:29:11;25.23;;;12.65;;
28802;SDS011;15949;55.656;37.422;2023-12-04T09:34:17;24.27;;;12.93;;
28802;SDS011;15949;55.656;37.422;2023-12-04T09:39:25;27.40;;;13.70;;
28802;SDS011;15949;55.656;37.422;2023-12-04T09:44:31;29.35;;;15.57;;
28802;SDS011;15949;55.656;37.422;2023-12-04T09:49:37;32.30;;;16.08;;
28802;SDS011;15949;55.656;37.422;2023-12-04T09:54:44;31.95;;;15.95;;
28802;SDS011;15949;55.656;37.422;2023-12-04T09:59:49;37.50;;;18.67;;
28802;SDS011;15949;55.656;37.422;2023-12-04T10:04:56;33.28;;;17.40;;
28802;SDS011;15949;55.656;37.422;2023-12-04T10:10:02;33.30;;;15.75;;
28802;SDS011;15949;55.656;37.422;2023-12-04T10:15:11;31.60;;;14.87;;
28802;SDS011;15949;55.656;37.422;2023-12-04T10:20:17;31.98;;;15.15;;
28802;SDS011;15949;55.656;37.422;2023-12-04T10:25:24;35.88;;;17.10;;
28802;SDS011;15949;55.656;37.422;2023-12-04T10:30:31;34.50;;;17.40;;
28802;SDS011;15949;55.656;37.422;2023-12-04T10:35:37;28.60;;;15.75;;
28802;SDS011;15949;55.656;37.422;2023-12-04T10:40:43;33.90;;;17.67;;
28802;SDS011;15949;55.656;37.422;2023-12-04T10:45:49;30.42;;;15.85;;
28802;SDS011;15949;55.656;37.422;2023-12-04T10:50:55;35.30;;;17.65;;
28802;SDS011;15949;55.656;37.422;2023-12-04T10:56:03;36.10;;;18.08;;
28802;SDS011;15949;55.656;37.422;2023-12-04T11:01:10;40.33;;;20.88;;
28802;SDS011;15949;55.656;37.422;2023-12-04T11:06:18;33.28;;;16.33;;
28802;SDS011;15949;55.656;37.422;2023-12-04T11:11:27;36.30;;;18.13;;
28802;SDS011;15949;55.656;37.422;2023-12-04T11:16:38;32.05;;;16.23;;
28802;SDS011;15949;55.656;37.422;2023-12-04T11:21:53;33.13;;;16.00;;
28802;SDS011;15949;55.656;37.422;2023-12-04T11:27:02;32.92;;;16.92;;
28802;SDS011;15949;55.656;37.422;2023-12-04T11:32:12;34.97;;;16.77;;
28802;SDS011;15949;55.656;37.422;2023-12-04T11:37:20;31.85;;;15.82;;
28802;SDS011;15949;55.656;37.422;2023-12-04T11:42:26;32.65;;;15.80;;
28802;SDS011;15949;55.656;37.422;2023-12-04T11:48:14;32.58;;;16.25;;
28802;SDS011;15949;55.656;37.422;2023-12-04T11:53:04;30.45;;;15.85;;
28802;SDS011;15949;55.656;37.422;2023-12-04T11:58:10;32.75;;;16.20;;
28802;SDS011;15949;55.656;37.422;2023-12-04T12:03:16;26.15;;;13.18;;
28802;SDS011;15949;55.656;37.422;2023-12-04T12:08:22;31.25;;;15.57;;
28802;SDS011;15949;55.656;37.422;2023-12-04T12:13:29;41.97;;;18.33;;
28802;SDS011;15949;55.656;37.422;2023-12-04T12:18:34;40.13;;;18.92;;
28802;SDS011;15949;55.656;37.422;2023-12-04T12:23:40;32.10;;;17.25;;
28802;SDS011;15949;55.656;37.422;2023-12-04T12:28:46;38.00;;;17.52;;
28802;SDS011;15949;55.656;37.422;2023-12-04T12:33:52;33.72;;;16.88;;
28802;SDS011;15949;55.656;37.422;2023-12-04T12:38:58;34.58;;;17.58;;
28802;SDS011;15949;55.656;37.422;2023-12-04T12:44:05;33.40;;;16.77;;
28802;SDS011;15949;55.656;37.422;2023-12-04T12:49:13;32.15;;;16.45;;
28802;SDS011;15949;55.656;37.422;2023-12-04T12:54:23;31.67;;;16.47;;
28802;SDS011;15949;55.656;37.422;2023-12-04T12:59:29;31.98;;;16.83;;
28802;SDS011;15949;55.656;37.422;2023-12-04T13:04:35;29.73;;;16.45;;
28802;SDS011;15949;55.656;37.422;2023-12-04T13:09:45;33.40;;;16.75;;
28802;SDS011;15949;55.656;37.422;2023-12-04T13:14:51;30.85;;;16.10;;
28802;SDS011;15949;55.656;37.422;2023-12-04T13:19:57;32.83;;;16.05;;
28802;SDS011;15949;55.656;37.422;2023-12-04T13:25:03;33.97;;;17.42;;
28802;SDS011;15949;55.656;37.422;2023-12-04T13:30:12;31.75;;;16.30;;
28802;SDS011;15949;55.656;37.422;2023-12-04T13:35:18;34.58;;;16.92;;
28802;SDS011;15949;55.656;37.422;2023-12-04T13:40:24;31.70;;;14.85;;
28802;SDS011;15949;55.656;37.422;2023-12-04T13:50:40;30.23;;;15.82;;
28802;SDS011;15949;55.656;37.422;2023-12-04T13:55:46;33.63;;;16.90;;
28802;SDS011;15949;55.656;37.422;2023-12-04T14:01:06;33.30;;;15.80;;
28802;SDS011;15949;55.656;37.422;2023-12-04T14:06:30;28.15;;;13.13;;
28802;SDS011;15949;55.656;37.422;2023-12-04T14:11:36;33.13;;;16.15;;
28802;SDS011;15949;55.656;37.422;2023-12-04T14:16:43;31.80;;;13.85;;
28802;SDS011;15949;55.656;37.422;2023-12-04T14:21:51;33.75;;;16.40;;
28802;SDS011;15949;55.656;37.422;2023-12-04T14:26:57;30.92;;;16.05;;
28802;SDS011;15949;55.656;37.422;2023-12-04T14:32:02;43.97;;;20.40;;
28802;SDS011;15949;55.656;37.422;2023-12-04T14:37:08;28.75;;;15.88;;
28802;SDS011;15949;55.656;37.422;2023-12-04T14:42:14;29.98;;;15.52;;
28802;SDS011;15949;55.656;37.422;2023-12-04T14:47:19;26.65;;;12.35;;
28802;SDS011;15949;55.656;37.422;2023-12-04T14:52:25;33.28;;;16.33;;
28802;SDS011;15949;55.656;37.422;2023-12-04T14:57:33;30.92;;;15.38;;
28802;SDS011;15949;55.656;37.422;2023-12-04T15:03:01;35.67;;;17.02;;
28802;SDS011;15949;55.656;37.422;2023-12-04T15:08:25;37.47;;;16.15;;
28802;SDS011;15949;55.656;37.422;2023-12-04T15:13:51;34.53;;;16.58;;
28802;SDS011;15949;55.656;37.422;2023-12-04T15:19:26;38.25;;;16.88;;
28802;SDS011;15949;55.656;37.422;2023-12-04T15:24:54;36.50;;;16.90;;
28802;SDS011;15949;55.656;37.422;2023-12-04T15:30:00;40.40;;;16.95;;
28802;SDS011;15949;55.656;37.422;2023-12-04T15:35:06;39.45;;;17.25;;
28802;SDS011;15949;55.656;37.422;2023-12-04T15:40:13;47.03;;;19.02;;
28802;SDS011;15949;55.656;37.422;2023-12-04T15:45:18;39.03;;;17.20;;
28802;SDS011;15949;55.656;37.422;2023-12-04T15:50:24;42.75;;;18.13;;
28802;SDS011;15949;55.656;37.422;2023-12-04T15:55:30;42.40;;;19.33;;
28802;SDS011;15949;55.656;37.422;2023-12-04T16:00:36;43.80;;;19.70;;
28802;SDS011;15949;55.656;37.422;2023-12-04T16:05:43;45.28;;;18.80;;
28802;SDS011;15949;55.656;37.422;2023-12-04T16:10:49;43.88;;;18.60;;
28802;SDS011;15949;55.656;37.422;2023-12-04T16:15:55;42.03;;;19.13;;
28802;SDS011;15949;55.656;37.422;2023-12-04T16:21:00;48.00;;;19.75;;
28802;SDS011;15949;55.656;37.422;2023-12-04T16:26:06;48.28;;;19.45;;
28802;SDS011;15949;55.656;37.422;2023-12-04T16:31:12;46.00;;;19.60;;
28802;SDS011;15949;55.656;37.422;2023-12-04T16:36:18;47.08;;;19.52;;
28802;SDS011;15949;55.656;37.422;2023-12-04T16:41:23;42.05;;;18.30;;
28802;SDS011;15949;55.656;37.422;2023-12-04T16:46:29;43.33;;;18.85;;
28802;SDS011;15949;55.656;37.422;2023-12-04T16:51:35;42.75;;;19.45;;
28802;SDS011;15949;55.656;37.422;2023-12-04T16:56:41;44.90;;;19.63;;
28802;SDS011;15949;55.656;37.422;2023-12-04T17:01:47;53.08;;;21.15;;
28802;SDS011;15949;55.656;37.422;2023-12-04T17:06:52;47.55;;;20.00;;
28802;SDS011;15949;55.656;37.422;2023-12-04T17:11:59;44.85;;;19.65;;
28802;SDS011;15949;55.656;37.422;2023-12-04T17:17:05;44.28;;;19.55;;
28802;SDS011;15949;55.656;37.422;2023-12-04T17:22:10;51.70;;;19.92;;
28802;SDS011;15949;55.656;37.422;2023-12-04T17:27:17;46.10;;;20.10;;
28802;SDS011;15949;55.656;37.422;2023-12-04T17:32:23;47.15;;;19.77;;
28802;SDS011;15949;55.656;37.422;2023-12-04T17:37:29;48.50;;;20.15;;
28802;SDS011;15949;55.656;37.422;2023-12-04T17:42:35;46.78;;;19.05;;
28802;SDS011;15949;55.656;37.422;2023-12-04T17:47:40;51.38;;;20.67;;
28802;SDS011;15949;55.656;37.422;2023-12-04T17:52:46;44.38;;;18.17;;
28802;SDS011;15949;55.656;37.422;2023-12-04T17:57:51;41.00;;;17.60;;
28802;SDS011;15949;55.656;37.422;2023-12-04T18:02:58;42.00;;;18.05;;
28802;SDS011;15949;55.656;37.422;2023-12-04T18:08:04;42.45;;;18.33;;
28802;SDS011;15949;55.656;37.422;2023-12-04T18:13:10;44.58;;;18.45;;
28802;SDS011;15949;55.656;37.422;2023-12-04T18:18:16;45.33;;;19.73;;
28802;SDS011;15949;55.656;37.422;2023-12-04T18:23:22;46.95;;;18.70;;
28802;SDS011;15949;55.656;37.422;2023-12-04T18:28:28;42.38;;;18.35;;
28802;SDS011;15949;55.656;37.422;2023-12-04T18:33:35;45.22;;;18.90;;
28802;SDS011;15949;55.656;37.422;2023-12-04T18:38:50;45.50;;;19.52;;
28802;SDS011;15949;55.656;37.422;2023-12-04T18:43:57;45.50;;;19.58;;
28802;SDS011;15949;55.656;37.422;2023-12-04T18:49:03;46.90;;;19.38;;
28802;SDS011;15949;55.656;37.422;2023-12-04T18:54:10;40.83;;;18.00;;
28802;SDS011;15949;55.656;37.422;2023-12-04T18:59:16;39.70;;;17.40;;
28802;SDS011;15949;55.656;37.422;2023-12-04T19:04:22;46.72;;;19.67;;
28802;SDS011;15949;55.656;37.422;2023-12-04T19:09:27;45.13;;;20.50;;
28802;SDS011;15949;55.656;37.422;2023-12-04T19:14:34;38.15;;;18.02;;
28802;SDS011;15949;55.656;37.422;2023-12-04T19:19:41;43.80;;;19.02;;
28802;SDS011;15949;55.656;37.422;2023-12-04T19:24:47;39.83;;;17.90;;
28802;SDS011;15949;55.656;37.422;2023-12-04T19:29:52;39.08;;;17.58;;
28802;SDS011;15949;55.656;37.422;2023-12-04T19:34:58;53.55;;;21.00;;
28802;SDS011;15949;55.656;37.422;2023-12-04T19:40:04;61.30;;;21.23;;
28802;SDS011;15949;55.656;37.422;2023-12-04T19:45:12;48.37;;;19.90;;
28802;SDS011;15949;55.656;37.422;2023-12-04T19:50:18;43.60;;;18.23;;
28802;SDS011;15949;55.656;37.422;2023-12-04T19:55:23;40.42;;;17.73;;
28802;SDS011;15949;55.656;37.422;2023-12-04T20:00:29;48.47;;;19.00;;
28802;SDS011;15949;55.656;37.422;2023-12-04T20:05:34;41.25;;;16.88;;
28802;SDS011;15949;55.656;37.422;2023-12-04T20:10:40;41.90;;;18.23;;
28802;SDS011;15949;55.656;37.422;2023-12-04T20:15:46;60.67;;;21.58;;
28802;SDS011;15949;55.656;37.422;2023-12-04T20:20:52;79.00;;;23.67;;
28802;SDS011;15949;55.656;37.422;2023-12-04T20:25:57;86.35;;;25.95;;
28802;SDS011;15949;55.656;37.422;2023-12-04T20:31:03;57.75;;;20.92;;
28802;SDS011;15949;55.656;37.422;2023-12-04T20:36:12;46.22;;;19.15;;
28802;SDS011;15949;55.656;37.422;2023-12-04T20:46:26;63.05;;;20.70;;
28802;SDS011;15949;55.656;37.422;2023-12-04T20:51:32;50.20;;;17.65;;
28802;SDS011;15949;55.656;37.422;2023-12-04T20:56:38;54.30;;;20.20;;
28802;SDS011;15949;55.656;37.422;2023-12-04T21:01:43;49.35;;;18.23;;
28802;SDS011;15949;55.656;37.422;2023-12-04T21:06:50;110.30;;;31.70;;
28802;SDS011;15949;55.656;37.422;2023-12-04T21:11:56;59.15;;;21.95;;
28802;SDS011;15949;55.656;37.422;2023-12-04T21:17:01;43.58;;;19.50;;
28802;SDS011;15949;55.656;37.422;2023-12-04T21:22:07;38.28;;;17.17;;
28802;SDS011;15949;55.656;37.422;2023-12-04T21:27:12;35.05;;;15.48;;
28802;SDS011;15949;55.656;37.422;2023-12-04T21:32:18;42.78;;;18.85;;
28802;SDS011;15949;55.656;37.422;2023-12-04T21:37:24;44.67;;;18.55;;
28802;SDS011;15949;55.656;37.422;2023-12-04T21:42:30;38.30;;;16.48;;
28802;SDS011;15949;55.656;37.422;2023-12-04T21:47:35;141.68;;;46.20;;
28802;SDS011;15949;55.656;37.422;2023-12-04T21:52:41;96.78;;;29.38;;
28802;SDS011;15949;55.656;37.422;2023-12-04T21:57:47;124.97;;;29.98;;
28802;SDS011;15949;55.656;37.422;2023-12-04T22:02:52;71.65;;;22.30;;
28802;SDS011;15949;55.656;37.422;2023-12-04T22:07:58;51.08;;;17.88;;
28802;SDS011;15949;55.656;37.422;2023-12-04T22:13:04;58.20;;;21.45;;
28802;SDS011;15949;55.656;37.422;2023-12-04T22:18:10;55.42;;;20.33;;
28802;SDS011;15949;55.656;37.422;2023-12-04T22:23:16;70.55;;;26.13;;
28802;SDS011;15949;55.656;37.422;2023-12-04T22:28:22;87.72;;;35.33;;
28802;SDS011;15949;55.656;37.422;2023-12-04T22:33:27;80.47;;;35.92;;
28802;SDS011;15949;55.656;37.422;2023-12-04T22:38:33;68.00;;;30.45;;
28802;SDS011;15949;55.656;37.422;2023-12-04T22:43:39;62.45;;;29.95;;
28802;SDS011;15949;55.656;37.422;2023-12-04T22:48:44;67.13;;;33.13;;
28802;SDS011;15949;55.656;37.422;2023-12-04T22:53:50;66.88;;;26.25;;
28802;SDS011;15949;55.656;37.422;2023-12-04T22:58:56;68.88;;;31.15;;
28802;SDS011;15949;55.656;37.422;2023-12-04T23:04:01;111.65;;;45.60;;
28802;SDS011;15949;55.656;37.422;2023-12-04T23:09:07;74.53;;;30.13;;
28802;SDS011;15949;55.656;37.422;2023-12-04T23:14:14;71.78;;;29.63;;
28802;SDS011;15949;55.656;37.422;2023-12-04T23:19:20;73.97;;;32.42;;
28802;SDS011;15949;55.656;37.422;2023-12-04T23:24:26;45.80;;;20.45;;
28802;SDS011;15949;55.656;37.422;2023-12-04T23:29:32;58.97;;;26.50;;
28802;SDS011;15949;55.656;37.422;2023-12-04T23:34:37;76.07;;;34.65;;
28802;SDS011;15949;55.656;37.422;2023-12-04T23:39:43;32.22;;;15.00;;
28802;SDS011;15949;55.656;37.422;2023-12-04T23:44:48;49.25;;;22.30;;
28802;SDS011;15949;55.656;37.422;2023-12-04T23:49:54;45.13;;;19.90;;
28802;SDS011;15949;55.656;37.422;2023-12-04T23:55:00;62.25;;;26.30;;
